Time;durP1;ratioP1;P1;durP2;ratioP2;P2;SDS_P1;SDS_P2;PMS_P1;PMS_P2;Temp;Humidity;BMP_temperature;BMP_pressure;BME280_temperature;BME280_humidity;BME280_pressure;Samples;Min_cycle;Max_cycle;Signal;HPM_P1;HPM_P2
2024/05/01 00:01:12;;;;;;;14.50;9.55;;;16.60;99.90;;;;;;5370310;26;20467;-76
2024/05/01 00:03:57;;;;;;;11.60;9.40;;;16.60;99.90;;;;;;5371534;26;20015;-76
2024/05/01 00:06:45;;;;;;;10.18;9.13;;;16.60;99.90;;;;;;5375343;26;20078;-76
2024/05/01 00:09:30;;;;;;;13.05;9.70;;;16.60;99.90;;;;;;5371478;26;20390;-76
2024/05/01 00:12:15;;;;;;;11.90;9.30;;;16.60;99.90;;;;;;5365995;26;20340;-76
2024/05/01 00:15:00;;;;;;;14.10;9.98;;;16.40;99.90;;;;;;5357567;26;20083;-76
2024/05/01 00:17:45;;;;;;;11.90;10.10;;;16.40;99.90;;;;;;5356983;26;20019;-76
2024/05/01 00:20:30;;;;;;;11.50;10.20;;;16.30;99.90;;;;;;5351723;26;20564;-77
2024/05/01 00:23:18;;;;;;;15.00;10.65;;;16.40;99.90;;;;;;5356387;26;20023;-76
2024/05/01 00:26:03;;;;;;;14.38;10.10;;;16.40;99.90;;;;;;5366548;26;20155;-76
2024/05/01 00:28:47;;;;;;;;;;;16.40;99.90;;;;;;5366734;26;20019;-76
2024/05/01 00:31:37;;;;;;;12.88;11.50;;;16.40;99.90;;;;;;5365385;26;20378;-76
2024/05/01 00:34:21;;;;;;;13.10;11.80;;;16.40;99.90;;;;;;5368904;26;20019;-76
2024/05/01 00:37:07;;;;;;;12.70;9.90;;;16.40;99.90;;;;;;5377112;26;20406;-76
2024/05/01 00:39:55;;;;;;;11.85;10.05;;;16.30;99.90;;;;;;5364717;26;20015;-77
2024/05/01 00:42:49;;;;;;;14.52;12.07;;;16.40;99.90;;;;;;5371783;26;20035;-76
2024/05/01 00:45:34;;;;;;;12.27;10.98;;;16.30;99.90;;;;;;5357065;26;20018;-76
2024/05/01 00:48:19;;;;;;;13.95;11.30;;;16.20;99.90;;;;;;5374606;26;20015;-76
2024/05/01 00:51:05;;;;;;;12.60;10.65;;;16.20;99.90;;;;;;5364949;26;20024;-76
2024/05/01 00:53:50;;;;;;;15.52;11.63;;;16.30;99.90;;;;;;5349356;26;20020;-76
2024/05/01 00:56:38;;;;;;;11.98;10.27;;;16.30;99.90;;;;;;5365359;26;20061;-76
2024/05/01 00:59:24;;;;;;;12.52;11.25;;;16.30;99.90;;;;;;5350721;26;20081;-76
2024/05/01 01:02:11;;;;;;;12.85;10.95;;;16.30;99.90;;;;;;5368644;26;20471;-76
2024/05/01 01:04:56;;;;;;;12.95;11.05;;;16.30;99.90;;;;;;5350936;26;20086;-76
2024/05/01 01:07:42;;;;;;;12.90;11.50;;;16.30;99.90;;;;;;5364643;26;20019;-76
2024/05/01 01:10:27;;;;;;;12.43;11.13;;;16.30;99.90;;;;;;5360701;26;20637;-76
2024/05/01 01:13:15;;;;;;;14.90;11.52;;;16.30;99.90;;;;;;5366328;26;20082;-76
2024/05/01 01:16:00;;;;;;;15.27;12.23;;;16.30;99.90;;;;;;5366385;26;20016;-77
2024/05/01 01:18:45;;;;;;;13.68;12.23;;;16.20;99.90;;;;;;5357462;26;20529;-77
2024/05/01 01:21:30;;;;;;;17.73;12.77;;;16.10;99.90;;;;;;5374816;26;20451;-76
2024/05/01 01:24:19;;;;;;;13.70;12.23;;;16.00;99.90;;;;;;5376299;26;20380;-77
2024/05/01 01:27:04;;;;;;;14.38;11.60;;;15.90;99.90;;;;;;5374885;26;20095;-78
2024/05/01 01:29:49;;;;;;;15.85;12.27;;;15.90;99.90;;;;;;5371556;26;20027;-77
2024/05/01 01:32:37;;;;;;;12.65;11.45;;;15.90;99.90;;;;;;5372849;26;20356;-77
2024/05/01 01:35:22;;;;;;;14.55;12.23;;;16.00;99.90;;;;;;5362074;26;20022;-77
2024/05/01 01:38:07;;;;;;;14.07;12.55;;;16.00;99.90;;;;;;5355077;26;20019;-77
2024/05/01 01:40:56;;;;;;;14.60;12.55;;;15.90;99.90;;;;;;5352304;26;20027;-77
2024/05/01 01:43:40;;;;;;;18.13;13.82;;;15.80;99.90;;;;;;5357905;26;20019;-77
2024/05/01 01:46:25;;;;;;;15.45;13.38;;;15.80;99.90;;;;;;5361144;26;20058;-77
2024/05/01 01:49:10;;;;;;;15.57;13.90;;;15.70;99.90;;;;;;5370322;26;20171;-77
2024/05/01 01:51:55;;;;;;;16.38;13.18;;;15.70;99.90;;;;;;5354454;26;20571;-77
2024/05/01 01:54:40;;;;;;;17.42;13.90;;;15.80;99.90;;;;;;5363622;26;20524;-77
2024/05/01 01:57:28;;;;;;;17.10;13.43;;;15.80;99.90;;;;;;5372137;26;20016;-77
2024/05/01 02:00:13;;;;;;;15.50;13.65;;;15.70;99.90;;;;;;5371963;26;20369;-77
2024/05/01 02:03:02;;;;;;;17.13;13.75;;;15.70;99.90;;;;;;5368910;26;20014;-77
2024/05/01 02:05:47;;;;;;;20.67;14.32;;;15.60;99.90;;;;;;5361309;26;20353;-77
2024/05/01 02:08:32;;;;;;;16.13;14.48;;;15.60;99.90;;;;;;5371349;26;20015;-77
2024/05/01 02:11:17;;;;;;;17.83;15.38;;;15.50;99.90;;;;;;5354534;26;20086;-77
2024/05/01 02:14:04;;;;;;;18.50;15.35;;;15.50;99.90;;;;;;5341376;26;20016;-77
2024/05/01 02:16:49;;;;;;;17.60;15.90;;;15.40;99.90;;;;;;5373443;26;20015;-77
2024/05/01 02:19:34;;;;;;;18.10;16.27;;;15.30;99.90;;;;;;5354447;26;20044;-77
2024/05/01 02:22:19;;;;;;;18.15;16.13;;;15.30;99.90;;;;;;5372742;26;20016;-77
2024/05/01 02:25:10;;;;;;;20.40;16.20;;;15.30;99.90;;;;;;5352260;26;20019;-77
2024/05/01 02:27:55;;;;;;;20.63;16.25;;;15.30;99.90;;;;;;5356009;26;20017;-77
2024/05/01 02:30:44;;;;;;;17.25;15.18;;;15.40;99.90;;;;;;5357339;26;20019;-77
2024/05/01 02:33:29;;;;;;;19.92;15.95;;;15.40;99.90;;;;;;5365515;26;20019;-77
2024/05/01 02:36:14;;;;;;;16.90;15.15;;;15.40;99.90;;;;;;5359529;26;20018;-77
2024/05/01 02:38:59;;;;;;;19.55;16.77;;;15.40;99.90;;;;;;5363352;26;20027;-77
2024/05/01 02:41:44;;;;;;;17.95;15.82;;;15.40;99.90;;;;;;5372532;26;20462;-77
2024/05/01 02:44:29;;;;;;;20.45;15.88;;;15.40;99.90;;;;;;5370720;26;20373;-77
2024/05/01 02:47:17;;;;;;;;;;;15.30;99.90;;;;;;5373622;26;20581;-77
2024/05/01 02:50:02;;;;;;;19.00;16.77;;;15.30;99.90;;;;;;5353504;26;20008;-78
2024/05/01 02:52:47;;;;;;;18.63;16.67;;;15.30;99.90;;;;;;5350141;26;20015;-77
2024/05/01 02:55:32;;;;;;;17.55;15.65;;;15.40;99.90;;;;;;5361103;26;20024;-77
2024/05/01 02:58:17;;;;;;;18.17;16.27;;;15.30;99.90;;;;;;5365490;26;20085;-76
2024/05/01 03:01:04;;;;;;;18.77;16.80;;;15.30;99.90;;;;;;5372736;26;20035;-77
2024/05/01 03:03:54;;;;;;;22.52;17.25;;;15.30;99.90;;;;;;5372133;26;20083;-77
2024/05/01 03:06:39;;;;;;;19.08;17.17;;;15.30;99.90;;;;;;5365627;26;20488;-77
2024/05/01 03:09:27;;;;;;;17.35;15.55;;;15.40;99.90;;;;;;5352896;26;20032;-77
2024/05/01 03:12:12;;;;;;;18.90;16.98;;;15.40;99.90;;;;;;5370729;26;20014;-77
2024/05/01 03:14:57;;;;;;;19.50;17.55;;;15.30;99.90;;;;;;5372492;26;20472;-77
2024/05/01 03:17:45;;;;;;;19.92;17.73;;;15.30;99.90;;;;;;5351877;26;20082;-77
2024/05/01 03:20:33;;;;;;;21.30;17.17;;;15.20;99.90;;;;;;5361345;26;20491;-77
2024/05/01 03:23:18;;;;;;;20.40;18.27;;;15.30;99.90;;;;;;5362539;26;20091;-77
2024/05/01 03:26:10;;;;;;;21.20;18.00;;;15.20;99.90;;;;;;5356865;26;20043;-77
2024/05/01 03:28:56;;;;;;;21.73;19.08;;;15.10;99.90;;;;;;5353729;26;20365;-77
2024/05/01 03:31:40;;;;;;;;;;;15.00;99.90;;;;;;5371228;26;20085;-77
2024/05/01 03:34:25;;;;;;;20.15;18.05;;;15.00;99.90;;;;;;5369425;26;19988;-77
2024/05/01 03:37:13;;;;;;;24.75;19.40;;;15.00;99.90;;;;;;5368109;26;20018;-77
2024/05/01 03:39:58;;;;;;;21.95;19.00;;;15.00;99.90;;;;;;5357183;26;20019;-77
2024/05/01 03:42:43;;;;;;;20.95;18.65;;;14.90;99.90;;;;;;5356214;26;20070;-77
2024/05/01 03:45:28;;;;;;;22.20;18.75;;;15.00;99.90;;;;;;5373950;26;20019;-77
2024/05/01 03:48:13;;;;;;;21.60;19.40;;;14.90;99.90;;;;;;5377324;26;20357;-78
2024/05/01 03:50:58;;;;;;;22.20;19.92;;;14.90;99.90;;;;;;5358218;26;20015;-77
2024/05/01 03:53:45;;;;;;;22.08;19.77;;;14.90;99.90;;;;;;5346867;26;20593;-77
2024/05/01 03:56:30;;;;;;;22.83;20.20;;;14.90;99.90;;;;;;5358471;26;20047;-77
2024/05/01 03:59:15;;;;;;;23.88;21.48;;;14.90;99.90;;;;;;5366227;26;20015;-77
2024/05/01 04:02:00;;;;;;;22.23;20.02;;;14.90;99.90;;;;;;5364498;26;20465;-77
2024/05/01 04:04:45;;;;;;;24.20;21.80;;;14.90;99.90;;;;;;5353880;26;20019;-77
2024/05/01 04:07:30;;;;;;;23.42;21.08;;;14.90;99.90;;;;;;5375548;26;20014;-77
2024/05/01 04:10:17;;;;;;;23.98;21.38;;;14.90;99.90;;;;;;5359736;26;20080;-77
2024/05/01 04:13:06;;;;;;;23.33;20.77;;;14.80;99.90;;;;;;5350442;26;20059;-77
2024/05/01 04:15:51;;;;;;;23.48;21.17;;;14.80;99.90;;;;;;5373099;26;20032;-77
2024/05/01 04:18:36;;;;;;;23.55;21.08;;;14.80;99.90;;;;;;5363938;26;20019;-77
2024/05/01 04:21:23;;;;;;;25.00;21.15;;;14.90;99.90;;;;;;5360380;26;20613;-77
2024/05/01 04:24:08;;;;;;;23.63;21.23;;;14.90;99.90;;;;;;5365858;26;20023;-77
2024/05/01 04:26:55;;;;;;;23.27;20.88;;;14.90;99.90;;;;;;5370514;26;20468;-77
2024/05/01 04:29:40;;;;;;;22.45;20.20;;;14.90;99.90;;;;;;5375156;26;20411;-77
2024/05/01 04:32:25;;;;;;;22.27;19.88;;;14.90;99.90;;;;;;5372458;26;20082;-78
2024/05/01 04:35:10;;;;;;;22.27;19.45;;;14.90;99.90;;;;;;5371380;26;20019;-77
2024/05/01 04:37:55;;;;;;;23.92;20.83;;;15.00;99.90;;;;;;5367624;26;20150;-77
2024/05/01 04:40:40;;;;;;;22.67;20.35;;;15.00;99.90;;;;;;5373135;26;20052;-77
2024/05/01 04:43:28;;;;;;;22.75;20.35;;;15.10;99.90;;;;;;5338274;26;20011;-77
2024/05/01 04:46:13;;;;;;;20.85;18.75;;;15.20;99.90;;;;;;5359759;26;20083;-77
2024/05/01 04:48:58;;;;;;;21.73;19.38;;;15.20;99.90;;;;;;5342610;26;20083;-77
2024/05/01 04:51:43;;;;;;;22.42;20.15;;;15.30;99.90;;;;;;5352378;26;20026;-77
2024/05/01 04:54:28;;;;;;;22.42;20.23;;;15.40;99.90;;;;;;5357061;26;20879;-77
2024/05/01 04:57:13;;;;;;;23.27;18.77;;;15.50;99.90;;;;;;5368530;26;20071;-77
2024/05/01 05:00:00;;;;;;;22.13;19.40;;;15.60;99.90;;;;;;5370029;26;20072;-77
2024/05/01 05:02:46;;;;;;;19.77;17.88;;;15.70;99.90;;;;;;5357117;26;20479;-77
2024/05/01 05:05:31;;;;;;;20.60;18.48;;;15.80;99.90;;;;;;5363637;26;20019;-77
2024/05/01 05:08:15;;;;;;;21.08;18.63;;;15.90;99.90;;;;;;5351654;26;20015;-77
2024/05/01 05:11:01;;;;;;;20.13;18.00;;;15.90;99.90;;;;;;5365731;26;20023;-77
2024/05/01 05:13:45;;;;;;;20.60;18.23;;;16.00;99.90;;;;;;5357971;26;20111;-77
2024/05/01 05:16:34;;;;;;;;;;;16.10;99.90;;;;;;5365894;26;20554;-77
2024/05/01 05:19:19;;;;;;;18.67;16.80;;;16.10;99.90;;;;;;5356130;26;19995;-77
2024/05/01 05:22:04;;;;;;;19.70;17.48;;;16.10;99.90;;;;;;5364133;26;20082;-77
2024/05/01 05:24:48;;;;;;;18.88;16.88;;;16.10;99.90;;;;;;5353714;26;20015;-77
2024/05/01 05:27:33;;;;;;;18.48;16.70;;;16.10;99.90;;;;;;5359182;26;20354;-77
2024/05/01 05:30:19;;;;;;;19.85;17.85;;;16.10;99.90;;;;;;5359799;26;20461;-77
2024/05/01 05:33:07;;;;;;;20.85;18.70;;;16.20;99.90;;;;;;5366447;26;20081;-77
2024/05/01 05:35:52;;;;;;;18.80;16.75;;;16.30;99.90;;;;;;5354435;26;20011;-77
2024/05/01 05:38:37;;;;;;;19.60;17.50;;;16.30;99.90;;;;;;5349722;26;20006;-77
2024/05/01 05:41:22;;;;;;;20.33;18.23;;;16.30;99.90;;;;;;5352113;26;20019;-77
2024/05/01 05:44:07;;;;;;;20.60;18.58;;;16.40;99.90;;;;;;5357212;26;20019;-78
2024/05/01 05:46:52;;;;;;;22.00;19.67;;;16.50;99.90;;;;;;5345555;26;20465;-78
2024/05/01 05:49:40;;;;;;;20.40;17.92;;;16.50;99.90;;;;;;5356059;26;20530;-77
2024/05/01 05:52:25;;;;;;;23.00;18.17;;;16.60;99.90;;;;;;5355372;26;20340;-77
2024/05/01 05:55:10;;;;;;;;;;;16.70;99.90;;;;;;5360579;26;20060;-77
2024/05/01 05:57:55;;;;;;;22.05;19.70;;;16.70;99.90;;;;;;5356242;26;19953;-77
2024/05/01 06:00:40;;;;;;;22.70;19.83;;;16.80;99.90;;;;;;5352023;26;20067;-77
2024/05/01 06:03:25;;;;;;;26.20;20.08;;;17.00;99.90;;;;;;5354956;26;20014;-77
2024/05/01 06:06:13;;;;;;;20.90;18.90;;;17.00;99.90;;;;;;5350339;26;20020;-77
2024/05/01 06:08:57;;;;;;;21.33;19.13;;;17.10;99.90;;;;;;5349491;26;20077;-79
2024/05/01 06:11:42;;;;;;;22.13;19.88;;;17.20;99.90;;;;;;5351027;26;20016;-77
2024/05/01 06:14:27;;;;;;;22.48;19.25;;;17.30;99.90;;;;;;5345383;26;20074;-79
2024/05/01 06:17:12;;;;;;;22.45;20.10;;;17.40;99.90;;;;;;5351111;26;20647;-78
2024/05/01 06:19:57;;;;;;;22.33;19.95;;;17.50;99.90;;;;;;5362677;26;20026;-78
2024/05/01 06:22:45;;;;;;;21.23;19.00;;;17.50;99.90;;;;;;5352653;26;20078;-78
2024/05/01 06:25:30;;;;;;;21.20;19.00;;;17.60;99.90;;;;;;5348660;26;20011;-78
2024/05/01 06:28:15;;;;;;;21.45;19.15;;;17.80;99.90;;;;;;5355077;26;20101;-78
2024/05/01 06:31:00;;;;;;;26.15;19.58;;;17.80;99.90;;;;;;5365328;26;20094;-78
2024/05/01 06:33:46;;;;;;;19.38;17.45;;;17.80;99.90;;;;;;5353061;26;20010;-78
2024/05/01 06:36:30;;;;;;;;;;;17.90;99.90;;;;;;5362372;26;20015;-78
2024/05/01 06:39:20;;;;;;;21.42;19.42;;;18.00;99.90;;;;;;5337553;26;19989;-78
2024/05/01 06:42:05;;;;;;;23.05;19.17;;;18.10;99.90;;;;;;5356263;26;20027;-78
2024/05/01 06:44:50;;;;;;;21.45;19.25;;;18.20;99.90;;;;;;5335596;26;20082;-78
2024/05/01 06:47:35;;;;;;;22.45;18.23;;;18.30;99.90;;;;;;5346996;26;20011;-78
2024/05/01 06:50:19;;;;;;;21.52;18.25;;;18.40;99.90;;;;;;5350885;26;20341;-79
2024/05/01 06:53:04;;;;;;;;;;;18.40;99.90;;;;;;5361660;26;20019;-78
2024/05/01 06:55:52;;;;;;;19.40;17.40;;;18.40;99.90;;;;;;5354613;26;19994;-78
2024/05/01 06:58:37;;;;;;;20.92;18.30;;;18.50;99.90;;;;;;5358010;26;20016;-78
2024/05/01 07:01:22;;;;;;;22.50;18.25;;;18.60;99.90;;;;;;5347888;26;20014;-78
2024/05/01 07:04:07;;;;;;;19.40;17.30;;;18.80;99.90;;;;;;5344946;26;20040;-78
2024/05/01 07:06:52;;;;;;;19.40;16.83;;;18.90;99.90;;;;;;5336295;26;20365;-78
2024/05/01 07:09:36;;;;;;;19.50;16.88;;;19.00;99.90;;;;;;5348049;26;20076;-78
2024/05/01 07:12:24;;;;;;;21.50;17.77;;;19.00;99.90;;;;;;5357961;26;20015;-78
2024/05/01 07:15:09;;;;;;;19.63;17.63;;;19.00;99.90;;;;;;5370054;26;20083;-78
2024/05/01 07:17:54;;;;;;;19.38;17.27;;;19.10;99.90;;;;;;5360067;26;21218;-78
2024/05/01 07:20:40;;;;;;;19.83;17.85;;;19.10;99.90;;;;;;5340282;26;20418;-78
2024/05/01 07:23:24;;;;;;;19.25;16.98;;;19.20;99.90;;;;;;5362750;26;20304;-78
2024/05/01 07:26:09;;;;;;;19.25;17.20;;;19.30;99.90;;;;;;5355030;26;20360;-78
2024/05/01 07:28:59;;;;;;;19.20;16.90;;;19.40;99.90;;;;;;5344698;26;20048;-77
2024/05/01 07:31:45;;;;;;;19.08;16.88;;;19.40;99.90;;;;;;5349661;26;20081;-78
2024/05/01 07:34:31;;;;;;;17.88;16.10;;;19.50;99.90;;;;;;5345559;26;20544;-78
2024/05/01 07:37:16;;;;;;;18.70;16.35;;;19.80;99.90;;;;;;5364381;26;20578;-78
2024/05/01 07:40:00;;;;;;;17.70;15.88;;;19.90;99.90;;;;;;5345742;26;20081;-78
2024/05/01 07:42:45;;;;;;;22.20;15.73;;;20.10;99.90;;;;;;5355593;26;20022;-78
2024/05/01 07:45:34;;;;;;;17.52;15.63;;;20.10;99.90;;;;;;5359259;26;20066;-78
2024/05/01 07:48:19;;;;;;;16.77;14.88;;;20.20;99.90;;;;;;5348740;26;20019;-78
2024/05/01 07:51:04;;;;;;;16.67;14.93;;;20.30;99.90;;;;;;5353905;26;20090;-78
2024/05/01 07:53:49;;;;;;;;;;;20.40;99.90;;;;;;5351089;26;20353;-78
2024/05/01 07:56:33;;;;;;;15.77;14.18;;;20.50;99.90;;;;;;5340678;26;19933;-78
2024/05/01 07:59:18;;;;;;;15.63;14.10;;;20.70;99.90;;;;;;5347177;26;20027;-78
2024/05/01 08:02:07;;;;;;;;;;;20.90;99.90;;;;;;5339575;26;20359;-78
2024/05/01 08:04:52;;;;;;;16.73;14.25;;;21.00;99.90;;;;;;5343699;26;20000;-78
2024/05/01 08:07:37;;;;;;;16.70;13.90;;;21.10;99.90;;;;;;5354474;26;20461;-78
2024/05/01 08:10:22;;;;;;;18.13;14.75;;;21.20;99.90;;;;;;5364911;26;20082;-78
2024/05/01 08:13:08;;;;;;;15.50;13.82;;;21.40;99.90;;;;;;5352723;26;20019;-78
2024/05/01 08:15:53;;;;;;;17.55;13.15;;;21.50;99.90;;;;;;5370119;26;20414;-78
2024/05/01 08:18:40;;;;;;;14.75;13.00;;;21.70;99.90;;;;;;5373136;26;20365;-78
2024/05/01 08:21:25;;;;;;;14.43;12.93;;;21.90;99.90;;;;;;5365393;26;20019;-78
2024/05/01 08:24:10;;;;;;;14.25;12.73;;;22.00;99.90;;;;;;5356272;26;20078;-78
2024/05/01 08:26:58;;;;;;;15.90;12.40;;;22.10;99.90;;;;;;5366119;26;20012;-78
2024/05/01 08:29:43;;;;;;;12.80;11.38;;;22.40;99.90;;;;;;5359122;26;20468;-78
2024/05/01 08:32:28;;;;;;;12.85;11.63;;;22.50;99.90;;;;;;5362438;26;20023;-78
2024/05/01 08:35:16;;;;;;;13.20;11.95;;;22.70;99.90;;;;;;5356816;26;20015;-78
2024/05/01 08:38:00;;;;;;;14.02;11.40;;;22.90;99.90;;;;;;5364310;26;20015;-78
2024/05/01 08:40:45;;;;;;;;;;;23.00;99.90;;;;;;5362769;26;20020;-78
2024/05/01 08:43:31;;;;;;;14.25;11.25;;;23.10;99.90;;;;;;5369000;26;19932;-78
2024/05/01 08:46:16;;;;;;;13.38;11.05;;;23.20;99.90;;;;;;5359414;26;20063;-78
2024/05/01 08:49:03;;;;;;;12.35;11.10;;;23.40;99.90;;;;;;5375181;26;20081;-78
2024/05/01 08:51:51;;;;;;;11.98;10.77;;;23.60;99.90;;;;;;5348548;26;20019;-78
2024/05/01 08:54:37;;;;;;;13.02;11.27;;;23.80;99.90;;;;;;5342772;26;20082;-77
2024/05/01 08:57:25;;;;;;;12.38;10.73;;;24.00;99.90;;;;;;5342760;26;20027;-76
2024/05/01 09:00:11;;;;;;;14.15;10.60;;;24.10;99.90;;;;;;5371277;26;20460;-78
2024/05/01 09:02:56;;;;;;;12.77;10.13;;;24.20;99.90;;;;;;5374628;26;20085;-78
2024/05/01 09:05:42;;;;;;;11.85;10.38;;;24.40;99.90;;;;;;5358213;26;20083;-79
2024/05/01 09:08:32;;;;;;;12.98;11.10;;;24.60;99.90;;;;;;5345233;26;20015;-78
2024/05/01 09:11:18;;;;;;;13.05;9.82;;;24.70;99.90;;;;;;5368005;26;20086;-78
2024/05/01 09:14:03;;;;;;;14.02;9.95;;;24.80;99.90;;;;;;5348514;26;20019;-78
2024/05/01 09:16:48;;;;;;;12.75;9.32;;;24.80;99.90;;;;;;5346911;26;20016;-78
2024/05/01 09:19:36;;;;;;;;;;;24.90;99.90;;;;;;5353755;26;20036;-78
2024/05/01 09:22:24;;;;;;;10.38;9.25;;;24.80;99.90;;;;;;5356922;26;19937;-79
2024/05/01 09:25:14;;;;;;;13.57;9.60;;;24.70;99.90;;;;;;5363279;26;20015;-78
2024/05/01 09:27:59;;;;;;;11.85;8.82;;;24.80;99.90;;;;;;5359929;26;20019;-78
2024/05/01 09:30:45;;;;;;;10.60;8.52;;;25.00;99.90;;;;;;5372933;26;20019;-78
2024/05/01 09:33:31;;;;;;;10.48;8.85;;;25.00;99.90;;;;;;5356287;26;20459;-79
2024/05/01 09:36:15;;;;;;;11.77;10.18;;;25.10;99.90;;;;;;5372774;26;20015;-78
2024/05/01 09:39:02;;;;;;;11.00;9.25;;;25.10;99.90;;;;;;5377746;26;20031;-78
2024/05/01 09:41:54;;;;;;;11.15;9.38;;;25.10;99.90;;;;;;5370980;26;20081;-79
2024/05/01 09:44:46;;;;;;;11.02;9.90;;;25.10;99.90;;;;;;5374141;26;20086;-78
2024/05/01 09:47:32;;;;;;;10.95;8.52;;;25.30;99.90;;;;;;5344497;26;20086;-78
2024/05/01 09:50:18;;;;;;;11.45;8.80;;;25.40;99.90;;;;;;5347870;26;20071;-77
2024/05/01 09:53:04;;;;;;;11.88;9.13;;;25.30;99.90;;;;;;5344517;26;20024;-77
2024/05/01 09:55:50;;;;;;;13.05;9.07;;;25.40;99.70;;;;;;5363041;26;20016;-78
2024/05/01 09:58:39;;;;;;;9.93;8.15;;;25.40;99.30;;;;;;5349234;26;20031;-79
2024/05/01 10:01:26;;;;;;;10.30;9.25;;;25.30;99.60;;;;;;5363225;26;20082;-77
2024/05/01 10:04:14;;;;;;;13.65;9.23;;;25.40;99.40;;;;;;5346552;26;20023;-78
2024/05/01 10:07:00;;;;;;;12.25;9.50;;;25.70;99.20;;;;;;5354926;26;20122;-78
2024/05/01 10:09:46;;;;;;;14.02;9.05;;;25.90;99.00;;;;;;5355881;26;20361;-77
2024/05/01 10:12:31;;;;;;;14.27;10.00;;;25.90;99.30;;;;;;5374208;26;20431;-78
2024/05/01 10:15:30;;;;;;;11.30;9.57;;;25.90;98.80;;;;;;5361673;26;20023;-79
2024/05/01 10:18:22;;;;;;;11.93;10.55;;;26.00;99.00;;;;;;5358153;26;20625;-79
2024/05/01 10:21:13;;;;;;;11.43;10.32;;;25.90;99.40;;;;;;5369017;26;20020;-75
2024/05/01 10:24:01;;;;;;;13.77;10.27;;;26.10;99.20;;;;;;5353617;26;20019;-76
2024/05/01 10:26:51;;;;;;;12.98;9.57;;;26.10;99.20;;;;;;5359189;26;20042;-77
2024/05/01 10:29:37;;;;;;;13.48;10.23;;;26.00;98.90;;;;;;5364369;26;20044;-77
2024/05/01 10:32:25;;;;;;;11.02;9.95;;;26.10;98.90;;;;;;5363975;26;20019;-77
2024/05/01 10:35:10;;;;;;;13.55;9.63;;;26.00;99.10;;;;;;5353606;26;20026;-77
2024/05/01 10:37:55;;;;;;;11.10;9.85;;;25.90;99.10;;;;;;5366547;26;20019;-77
2024/05/01 10:40:41;;;;;;;12.85;9.48;;;25.90;98.60;;;;;;5363697;26;20086;-77
2024/05/01 10:43:26;;;;;;;11.88;9.32;;;26.00;98.70;;;;;;5363079;26;20275;-77
2024/05/01 10:46:11;;;;;;;15.80;9.75;;;26.00;98.70;;;;;;5374160;26;20078;-77
2024/05/01 10:49:01;;;;;;;10.85;9.55;;;26.10;98.60;;;;;;5372250;26;20019;-77
2024/05/01 10:51:45;;;;;;;13.05;8.75;;;26.30;98.60;;;;;;5349121;26;20015;-78
2024/05/01 10:54:31;;;;;;;11.15;8.65;;;26.70;98.00;;;;;;5340930;26;20015;-78
2024/05/01 10:57:16;;;;;;;12.25;8.23;;;26.80;97.40;;;;;;5340988;26;20040;-77
2024/05/01 11:00:03;;;;;;;11.27;7.30;;;26.90;97.30;;;;;;5369290;26;20374;-77
2024/05/01 11:02:49;;;;;;;8.57;6.05;;;27.00;96.60;;;;;;5374282;26;20051;-77
2024/05/01 11:05:40;;;;;;;11.25;7.15;;;26.90;96.50;;;;;;5356519;26;20045;-78
2024/05/01 11:08:28;;;;;;;9.65;7.32;;;26.90;95.80;;;;;;5343763;26;20049;-78
2024/05/01 11:11:13;;;;;;;8.85;6.28;;;26.80;96.30;;;;;;5365404;26;20040;-78
2024/05/01 11:13:58;;;;;;;7.93;6.55;;;26.90;96.40;;;;;;5361066;26;20056;-78
2024/05/01 11:16:44;;;;;;;8.90;6.32;;;27.10;95.90;;;;;;5374663;26;20023;-78
2024/05/01 11:19:29;;;;;;;8.48;5.55;;;27.30;95.60;;;;;;5368788;26;20022;-78
2024/05/01 11:22:19;;;;;;;9.20;6.00;;;27.50;94.50;;;;;;5367332;26;20411;-78
2024/05/01 11:25:04;;;;;;;8.65;5.97;;;27.40;94.50;;;;;;5356899;26;20027;-78
2024/05/01 11:27:50;;;;;;;6.45;5.78;;;27.30;94.70;;;;;;5356104;26;20082;-79
2024/05/01 11:30:35;;;;;;;7.43;5.50;;;27.40;94.40;;;;;;5355975;26;20019;-78
2024/05/01 11:33:20;;;;;;;7.25;5.85;;;27.40;94.00;;;;;;5366519;26;20019;-78
2024/05/01 11:36:06;;;;;;;8.70;5.32;;;27.30;93.80;;;;;;5366535;26;20040;-78
2024/05/01 11:38:55;;;;;;;7.28;4.80;;;27.50;94.00;;;;;;5363393;26;20077;-78
2024/05/01 11:41:39;;;;;;;8.40;5.53;;;27.60;93.50;;;;;;5354577;26;20015;-78
2024/05/01 11:44:24;;;;;;;7.90;5.00;;;27.60;93.40;;;;;;5368526;26;20077;-78
2024/05/01 11:47:10;;;;;;;7.47;5.05;;;27.50;93.20;;;;;;5370030;26;20062;-79
2024/05/01 11:50:00;;;;;;;11.40;5.47;;;27.50;93.40;;;;;;5370060;26;20180;-78
2024/05/01 11:52:45;;;;;;;8.38;5.20;;;27.70;93.30;;;;;;5340520;26;20020;-78
2024/05/01 11:55:33;;;;;;;5.93;4.80;;;27.60;93.70;;;;;;5345010;26;20078;-80
2024/05/01 11:58:18;;;;;;;9.15;4.85;;;27.80;93.40;;;;;;5345963;26;20036;-77
2024/05/01 12:01:08;;;;;;;10.00;4.95;;;27.80;93.50;;;;;;5344678;26;20016;-78
2024/05/01 12:03:57;;;;;;;7.55;4.93;;;28.00;93.30;;;;;;5345357;26;20012;-78
2024/05/01 12:06:42;;;;;;;10.82;5.20;;;28.10;93.00;;;;;;5352594;26;20016;-77
2024/05/01 12:09:27;;;;;;;11.70;4.70;;;28.30;93.30;;;;;;5350712;26;20023;-79
2024/05/01 12:12:15;;;;;;;7.40;5.13;;;28.50;93.50;;;;;;5357774;26;20104;-78
2024/05/01 12:15:00;;;;;;;9.02;5.20;;;28.50;92.80;;;;;;5363468;26;20019;-79
2024/05/01 12:17:45;;;;;;;6.93;4.57;;;28.50;92.60;;;;;;5348494;26;20022;-78
2024/05/01 12:20:31;;;;;;;6.03;4.45;;;28.40;92.40;;;;;;5357987;26;20012;-77
2024/05/01 12:23:15;;;;;;;7.10;4.53;;;28.30;92.40;;;;;;5366677;26;20112;-77
2024/05/01 12:26:04;;;;;;;4.93;4.40;;;28.30;92.20;;;;;;5357285;26;20078;-77
2024/05/01 12:28:51;;;;;;;6.00;4.47;;;28.30;92.20;;;;;;5355834;26;20083;-78
2024/05/01 12:31:38;;;;;;;8.73;5.10;;;28.20;92.30;;;;;;5361635;26;20075;-78
2024/05/01 12:34:44;;;;;;;9.98;4.82;;;28.30;92.40;;;;;;5357382;26;20039;-78
2024/05/01 12:37:46;;;;;;;9.68;5.28;;;28.30;92.50;;;;;;5359106;26;20028;-79
2024/05/01 12:41:03;;;;;;;6.55;5.20;;;28.40;92.50;;;;;;5358367;26;20550;-78
2024/05/01 12:43:52;;;;;;;7.78;4.78;;;28.40;92.30;;;;;;5363137;26;20015;-79
2024/05/01 12:46:41;;;;;;;5.35;4.75;;;28.40;92.40;;;;;;5374376;26;20015;-78
2024/05/01 12:49:27;;;;;;;5.28;4.07;;;28.40;92.20;;;;;;5343106;26;20015;-78
2024/05/01 12:52:28;;;;;;;8.10;4.40;;;28.50;91.70;;;;;;5353140;26;20032;-78
2024/05/01 12:55:17;;;;;;;10.45;4.00;;;28.60;92.00;;;;;;5346422;26;20072;-78
2024/05/01 12:58:02;;;;;;;7.75;3.75;;;28.70;91.20;;;;;;5364945;26;20020;-78
2024/05/01 13:00:49;;;;;;;6.82;3.75;;;29.10;90.70;;;;;;5348369;26;20540;-79
2024/05/01 13:03:37;;;;;;;8.60;4.03;;;29.40;90.30;;;;;;5350636;26;20079;-78
2024/05/01 13:06:22;;;;;;;7.18;3.55;;;29.60;90.00;;;;;;5351707;26;20449;-79
2024/05/01 13:09:21;;;;;;;5.95;3.80;;;29.80;89.40;;;;;;5346531;26;20090;-79
2024/05/01 13:12:07;;;;;;;7.65;3.40;;;30.40;88.10;;;;;;5358673;26;20022;-78
2024/05/01 13:14:53;;;;;;;5.07;3.22;;;31.00;86.60;;;;;;5352875;26;20018;-78
2024/05/01 13:17:41;;;;;;;4.53;3.28;;;31.20;85.00;;;;;;5371309;26;20015;-78
2024/05/01 13:20:36;;;;;;;5.95;2.92;;;31.30;84.80;;;;;;5374383;26;20019;-78
2024/05/01 13:23:22;;;;;;;5.65;3.30;;;31.20;84.90;;;;;;5358267;26;20078;-78
2024/05/01 13:26:19;;;;;;;9.70;3.10;;;31.20;84.10;;;;;;5366934;26;20502;-77
2024/05/01 13:29:16;;;;;;;5.38;3.08;;;31.30;84.50;;;;;;5362570;26;20019;-78
2024/05/01 13:32:02;;;;;;;5.60;3.08;;;31.70;83.00;;;;;;5359666;26;20023;-78
2024/05/01 13:34:49;;;;;;;3.72;2.65;;;31.70;81.00;;;;;;5362888;26;20085;-78
2024/05/01 13:37:41;;;;;;;5.72;2.80;;;31.60;81.00;;;;;;5361731;26;20083;-78
2024/05/01 13:40:53;;;;;;;4.80;2.75;;;31.50;80.50;;;;;;5368324;26;20049;-79
2024/05/01 13:43:41;;;;;;;6.10;2.60;;;31.40;80.90;;;;;;5364945;26;20022;-77
2024/05/01 13:46:31;;;;;;;6.88;2.70;;;31.80;80.20;;;;;;5375654;26;20015;-78
2024/05/01 13:49:24;;;;;;;4.25;2.72;;;31.90;80.40;;;;;;5374722;26;20023;-78
2024/05/01 13:52:12;;;;;;;6.43;2.75;;;32.00;79.50;;;;;;5374093;26;20023;-78
2024/05/01 13:54:57;;;;;;;6.03;2.58;;;31.70;79.60;;;;;;5374149;26;20019;-77
2024/05/01 13:57:48;;;;;;;3.50;2.25;;;31.90;79.20;;;;;;5356550;26;20031;-77
2024/05/01 14:00:32;;;;;;;7.57;2.53;;;31.70;77.80;;;;;;5354241;26;20492;-77
2024/05/01 14:03:30;;;;;;;10.05;2.60;;;31.60;77.20;;;;;;5348025;26;20086;-77
2024/05/01 14:06:15;;;;;;;4.97;2.28;;;31.40;78.10;;;;;;5347668;26;20031;-78
2024/05/01 14:09:03;;;;;;;5.78;2.15;;;31.70;76.40;;;;;;5353703;26;20019;-78
2024/05/01 14:11:53;;;;;;;5.10;2.30;;;31.70;77.60;;;;;;5343562;26;20024;-78
2024/05/01 14:14:40;;;;;;;5.82;2.22;;;32.10;76.90;;;;;;5372663;26;20534;-78